createdAt,value
2023-05-07T00:00:30.538Z,2.70
2023-05-07T00:05:32.076Z,4.70
2023-05-07T00:10:33.594Z,3.30
2023-05-07T00:15:35.106Z,3.20
2023-05-07T00:20:36.608Z,3.70
2023-05-07T00:25:38.087Z,2.90
2023-05-07T00:30:46.570Z,3.10
2023-05-07T00:35:48.033Z,2.30
2023-05-07T00:40:49.576Z,2.60
2023-05-07T00:45:51.390Z,3.40
2023-05-07T00:50:53.519Z,3.00
2023-05-07T00:55:55.888Z,2.70
2023-05-07T01:00:59.354Z,3.70
2023-05-07T01:06:02.308Z,2.30
2023-05-07T01:11:04.791Z,4.90
2023-05-07T01:16:07.635Z,3.10
2023-05-07T01:21:12.376Z,3.80
2023-05-07T01:26:13.877Z,3.80
2023-05-07T01:31:16.569Z,2.40
2023-05-07T01:36:22.099Z,3.00
2023-05-07T01:41:23.739Z,4.20
2023-05-07T01:46:27.318Z,3.50
2023-05-07T01:51:28.933Z,2.70
2023-05-07T01:56:31.149Z,2.30
2023-05-07T02:01:32.709Z,2.80
2023-05-07T02:06:34.275Z,3.70
2023-05-07T02:11:36.137Z,3.00
2023-05-07T02:16:37.718Z,3.50
2023-05-07T02:21:39.380Z,2.90
2023-05-07T02:26:42.413Z,2.40
2023-05-07T02:31:43.966Z,3.40
2023-05-07T02:36:46.554Z,3.00
2023-05-07T02:41:48.045Z,3.10
2023-05-07T02:46:49.530Z,2.60
2023-05-07T02:51:51.029Z,2.50
2023-05-07T02:56:52.543Z,2.60
2023-05-07T03:01:54.041Z,2.50
2023-05-07T03:06:55.871Z,3.40
2023-05-07T03:11:58.123Z,2.20
2023-05-07T03:16:59.662Z,3.30
2023-05-07T03:22:01.433Z,2.60
2023-05-07T03:27:03.013Z,2.30
2023-05-07T03:32:05.033Z,2.70
2023-05-07T03:37:06.547Z,2.60
2023-05-07T03:42:08.148Z,2.70
2023-05-07T03:47:11.209Z,2.50
2023-05-07T03:52:12.721Z,2.70
2023-05-07T03:57:14.184Z,1.80
2023-05-07T04:02:15.935Z,3.20
2023-05-07T04:07:17.485Z,2.80
2023-05-07T04:12:19.094Z,2.00
2023-05-07T04:17:20.947Z,2.90
2023-05-07T04:22:22.610Z,2.00
2023-05-07T04:27:24.098Z,2.10
2023-05-07T04:32:26.072Z,3.20
2023-05-07T04:37:27.736Z,2.00
2023-05-07T04:42:29.241Z,2.40
2023-05-07T04:47:30.759Z,1.90
2023-05-07T04:52:32.374Z,2.30
2023-05-07T04:57:34.150Z,2.60
2023-05-07T05:02:36.006Z,2.30
2023-05-07T05:07:37.685Z,3.00
2023-05-07T05:12:39.439Z,2.10
2023-05-07T05:17:41.467Z,2.20
2023-05-07T05:22:43.326Z,2.50
2023-05-07T05:27:44.858Z,2.20
2023-05-07T05:32:46.387Z,2.70
2023-05-07T05:37:47.988Z,2.10
2023-05-07T05:42:49.494Z,2.40
2023-05-07T05:47:51.278Z,1.80
2023-05-07T05:52:52.886Z,2.20
2023-05-07T05:57:54.604Z,3.00
2023-05-07T06:02:56.372Z,2.30
2023-05-07T06:07:57.919Z,8.60
2023-05-07T06:12:59.432Z,2.20
2023-05-07T06:18:00.965Z,2.40
2023-05-07T06:23:02.477Z,2.70
2023-05-07T06:28:04.046Z,2.70
2023-05-07T06:33:05.602Z,2.90
2023-05-07T06:38:07.075Z,3.10
2023-05-07T06:43:08.554Z,2.40
2023-05-07T06:48:10.053Z,2.20
2023-05-07T06:53:11.580Z,2.00
2023-05-07T06:58:13.177Z,2.70
2023-05-07T07:03:14.734Z,2.50
2023-05-07T07:08:18.181Z,1.80
2023-05-07T07:13:20.404Z,2.00
2023-05-07T07:18:22.305Z,2.60
2023-05-07T07:23:24.662Z,2.20
2023-05-07T07:28:26.371Z,4.80
2023-05-07T07:33:27.955Z,2.40
2023-05-07T07:38:29.504Z,6.90
2023-05-07T07:43:31.015Z,5.60
2023-05-07T07:48:34.132Z,4.60
2023-05-07T07:53:36.001Z,2.80
2023-05-07T07:58:38.974Z,3.00
2023-05-07T08:03:40.596Z,2.50
2023-05-07T08:08:42.258Z,2.30
2023-05-07T08:13:44.066Z,1.80
2023-05-07T08:18:45.945Z,2.20
2023-05-07T08:23:47.473Z,3.20
2023-05-07T08:28:49.213Z,3.40
2023-05-07T08:33:51.601Z,2.80
2023-05-07T08:38:53.904Z,3.00
2023-05-07T08:44:01.269Z,2.30
2023-05-07T08:49:03.729Z,3.10
2023-05-07T08:54:06.534Z,2.60
2023-05-07T08:59:08.193Z,2.10
2023-05-07T09:04:10.951Z,2.30
2023-05-07T09:09:15.861Z,2.80
2023-05-07T09:14:18.048Z,2.70
2023-05-07T09:19:26.357Z,2.20
2023-05-07T09:24:29.619Z,2.60
2023-05-07T09:29:36.238Z,2.90
2023-05-07T09:34:37.993Z,2.50
2023-05-07T09:39:47.230Z,3.20
2023-05-07T09:44:48.902Z,2.20
2023-05-07T09:49:51.165Z,2.20
2023-05-07T09:54:54.483Z,3.40
2023-05-07T09:59:59.108Z,2.90
2023-05-07T10:05:02.800Z,2.20
2023-05-07T10:10:05.955Z,2.20
2023-05-07T10:15:09.239Z,3.70
2023-05-07T10:20:11.807Z,2.90
2023-05-07T10:25:24.056Z,3.10
2023-05-07T10:30:29.414Z,2.50
2023-05-07T10:35:40.074Z,6.60
2023-05-07T10:45:43.220Z,2.30
2023-05-07T10:50:49.197Z,2.40
2023-05-07T10:55:53.694Z,2.20
2023-05-07T11:01:00.483Z,2.70
2023-05-07T11:06:15.977Z,2.70
2023-05-07T11:11:17.597Z,2.10
2023-05-07T11:16:24.124Z,2.30
2023-05-07T11:21:42.083Z,3.10
2023-05-07T11:26:49.607Z,4.00
2023-05-07T11:31:53.216Z,2.60
2023-05-07T11:36:54.954Z,2.70
2023-05-07T11:41:56.767Z,3.10
2023-05-07T11:46:59.291Z,2.80
2023-05-07T11:52:01.371Z,2.90
2023-05-07T11:57:03.251Z,4.40
2023-05-07T12:02:04.941Z,2.10
2023-05-07T12:07:07.116Z,2.70
2023-05-07T12:12:08.899Z,3.10
2023-05-07T12:17:12.143Z,3.80
2023-05-07T12:22:14.118Z,5.20
2023-05-07T12:27:16.967Z,2.60
2023-05-07T12:32:21.508Z,2.80
2023-05-07T12:37:29.038Z,3.90
2023-05-07T12:42:43.515Z,2.70
2023-05-07T12:47:48.632Z,2.70
2023-05-07T12:52:50.620Z,2.60
2023-05-07T12:57:53.779Z,2.90
2023-05-07T13:07:57.790Z,2.70
2023-05-07T13:13:02.440Z,3.30
2023-05-07T13:18:04.259Z,3.00
2023-05-07T13:23:05.883Z,2.10
2023-05-07T13:28:11.158Z,2.50
2023-05-07T13:33:13.527Z,6.10
2023-05-07T13:38:16.906Z,5.70
2023-05-07T13:43:19.878Z,2.40
2023-05-07T13:48:21.378Z,2.80
2023-05-07T13:53:22.980Z,2.40
2023-05-07T13:58:24.691Z,2.70
2023-05-07T14:03:26.238Z,3.20
2023-05-07T14:08:31.678Z,3.20
2023-05-07T14:13:35.465Z,4.10
2023-05-07T14:18:38.179Z,2.60
2023-05-07T14:23:39.846Z,3.30
2023-05-07T14:28:42.134Z,3.30
2023-05-07T14:33:43.649Z,3.90
2023-05-07T14:38:45.966Z,2.70
2023-05-07T14:43:51.008Z,3.50
2023-05-07T14:48:52.684Z,1.90
2023-05-07T14:53:54.155Z,2.50
2023-05-07T14:58:55.844Z,4.00
2023-05-07T15:03:57.522Z,2.60
2023-05-07T15:08:59.375Z,2.30
2023-05-07T15:14:00.968Z,2.70
2023-05-07T15:19:02.857Z,2.90
2023-05-07T15:24:04.509Z,2.70
2023-05-07T15:29:11.064Z,2.70
2023-05-07T15:34:13.023Z,2.80
2023-05-07T15:39:14.595Z,1.80
2023-05-07T15:44:16.093Z,2.10
2023-05-07T15:49:17.848Z,2.20
2023-05-07T15:54:21.149Z,2.30
2023-05-07T15:59:22.821Z,1.80
2023-05-07T16:04:24.626Z,2.20
2023-05-07T16:09:27.233Z,2.40
2023-05-07T16:14:28.815Z,2.70
2023-05-07T16:19:30.431Z,2.80
2023-05-07T16:24:32.727Z,2.00
2023-05-07T16:29:34.245Z,6.60
2023-05-07T16:34:35.779Z,2.40
2023-05-07T16:39:38.697Z,3.70
2023-05-07T16:44:40.353Z,2.70
2023-05-07T16:49:41.848Z,4.10
2023-05-07T16:54:43.334Z,2.50
2023-05-07T16:59:44.838Z,2.60
2023-05-07T17:04:46.304Z,2.50
2023-05-07T17:09:47.975Z,3.50
2023-05-07T17:14:49.723Z,3.20
2023-05-07T17:19:51.237Z,5.10
2023-05-07T17:24:52.960Z,4.10
2023-05-07T17:29:54.768Z,5.80
2023-05-07T17:34:57.026Z,8.60
2023-05-07T17:39:58.563Z,5.50
2023-05-07T17:45:00.209Z,5.30
2023-05-07T17:50:02.998Z,4.80
2023-05-07T17:55:05.447Z,8.70
2023-05-07T18:00:07.827Z,10.70
2023-05-07T18:05:09.852Z,11.30
2023-05-07T18:10:11.603Z,9.30
2023-05-07T18:15:13.313Z,13.80
2023-05-07T18:20:14.978Z,9.10
2023-05-07T18:25:16.462Z,10.40
2023-05-07T18:30:25.280Z,11.30
2023-05-07T18:35:26.770Z,9.70
2023-05-07T18:40:28.501Z,6.60
2023-05-07T18:45:30.150Z,7.10
2023-05-07T18:50:31.632Z,6.80
2023-05-07T18:55:33.125Z,9.30
2023-05-07T19:00:37.574Z,11.90
2023-05-07T19:05:39.111Z,9.80
2023-05-07T19:10:40.622Z,10.40
2023-05-07T19:15:42.204Z,13.80
2023-05-07T19:20:43.845Z,11.20
2023-05-07T19:25:45.499Z,11.00
2023-05-07T19:30:49.944Z,9.10
2023-05-07T19:35:54.010Z,11.00
2023-05-07T19:40:55.888Z,11.20
2023-05-07T19:45:57.440Z,11.40
2023-05-07T19:51:01.909Z,9.20
2023-05-07T19:56:04.864Z,8.00
2023-05-07T20:01:06.789Z,6.30
2023-05-07T20:06:08.461Z,6.60
2023-05-07T20:11:11.525Z,6.10
2023-05-07T20:16:13.187Z,5.20
2023-05-07T20:21:15.539Z,3.70
2023-05-07T20:26:17.052Z,4.80
2023-05-07T20:31:19.136Z,5.20
2023-05-07T20:36:20.750Z,5.00
2023-05-07T20:41:24.739Z,4.50
2023-05-07T20:46:27.552Z,4.40
2023-05-07T20:51:30.437Z,3.90
2023-05-07T20:56:31.922Z,4.10
2023-05-07T21:01:34.586Z,4.90
2023-05-07T21:06:36.325Z,4.10
2023-05-07T21:11:37.858Z,3.90
2023-05-07T21:16:40.779Z,4.70
2023-05-07T21:21:43.099Z,5.10
2023-05-07T21:26:44.644Z,3.70
2023-05-07T21:31:46.390Z,4.00
2023-05-07T21:36:47.892Z,4.40
2023-05-07T21:41:49.476Z,4.30
2023-05-07T21:46:51.311Z,5.20
2023-05-07T21:51:52.872Z,4.70
2023-05-07T21:56:54.354Z,4.50
2023-05-07T22:01:55.976Z,4.60
2023-05-07T22:06:57.634Z,3.80
2023-05-07T22:11:59.263Z,5.10
2023-05-07T22:17:00.969Z,4.50
2023-05-07T22:22:02.766Z,5.30
2023-05-07T22:27:04.276Z,6.20
2023-05-07T22:32:05.804Z,6.20
2023-05-07T22:37:07.379Z,7.00
2023-05-07T22:42:08.962Z,7.20
2023-05-07T22:47:10.781Z,8.10
2023-05-07T22:52:12.310Z,6.20
2023-05-07T22:57:13.805Z,5.60
2023-05-07T23:02:15.450Z,9.20
2023-05-07T23:07:16.989Z,6.70
2023-05-07T23:12:18.574Z,7.30
2023-05-07T23:17:20.091Z,7.00
2023-05-07T23:22:21.852Z,6.80
2023-05-07T23:27:23.352Z,6.70
2023-05-07T23:32:24.898Z,7.00
2023-05-07T23:37:26.540Z,7.30
2023-05-07T23:42:28.101Z,7.00
2023-05-07T23:47:30.577Z,5.10
2023-05-07T23:52:32.345Z,5.30
2023-05-07T23:57:33.874Z,5.20
